createdAt,value
2018-01-07T00:00:43.287Z,18.80
2018-01-07T00:01:43.248Z,18.82
2018-01-07T00:02:43.222Z,18.91
2018-01-07T00:03:43.209Z,18.85
2018-01-07T00:04:43.205Z,18.87
2018-01-07T00:05:43.205Z,18.84
2018-01-07T00:06:43.169Z,18.88
2018-01-07T00:07:43.157Z,19.00
2018-01-07T00:08:43.122Z,18.95
2018-01-07T00:09:43.095Z,18.95
2018-01-07T00:10:43.077Z,18.88
2018-01-07T00:11:43.074Z,18.90
2018-01-07T00:12:43.021Z,18.92
2018-01-07T00:13:43.041Z,18.85
2018-01-07T00:14:43.018Z,18.94
2018-01-07T00:15:42.992Z,19.08
2018-01-07T00:16:42.970Z,18.98
2018-01-07T00:17:42.950Z,19.00
2018-01-07T00:18:42.899Z,18.92
2018-01-07T00:19:42.908Z,19.04
2018-01-07T00:20:42.862Z,19.04
2018-01-07T00:21:42.836Z,19.18
2018-01-07T00:22:42.816Z,19.11
2018-01-07T00:23:42.796Z,19.13
2018-01-07T00:24:42.805Z,19.16
2018-01-07T00:25:42.751Z,19.22
2018-01-07T00:26:42.747Z,19.21
2018-01-07T00:27:42.745Z,19.25
2018-01-07T00:29:15.901Z,19.23
2018-01-07T00:29:42.671Z,19.21
2018-01-07T00:30:42.685Z,19.19
2018-01-07T00:31:42.666Z,19.29
2018-01-07T00:32:42.608Z,19.31
2018-01-07T00:33:42.620Z,19.39
2018-01-07T00:34:42.584Z,19.47
2018-01-07T00:35:42.553Z,19.47
2018-01-07T00:36:42.558Z,19.46
2018-01-07T00:37:42.544Z,19.50
2018-01-07T00:38:42.519Z,19.54
2018-01-07T00:39:42.499Z,19.58
2018-01-07T00:40:42.443Z,19.59
2018-01-07T00:41:42.431Z,19.51
2018-01-07T00:42:42.404Z,19.58
2018-01-07T00:43:42.416Z,19.65
2018-01-07T00:44:42.380Z,19.80
2018-01-07T00:45:42.339Z,19.80
2018-01-07T00:46:42.321Z,19.78
2018-01-07T00:47:42.337Z,19.76
2018-01-07T00:48:42.297Z,19.77
2018-01-07T00:49:42.277Z,19.81
2018-01-07T00:50:42.245Z,19.68
2018-01-07T00:51:42.228Z,19.69
2018-01-07T00:52:42.217Z,19.78
2018-01-07T00:53:42.197Z,19.77
2018-01-07T00:54:42.193Z,19.84
2018-01-07T00:55:42.173Z,19.92
2018-01-07T00:56:42.160Z,19.87
2018-01-07T00:57:42.135Z,19.96
2018-01-07T00:58:42.115Z,19.98
2018-01-07T00:59:42.096Z,20.02
2018-01-07T01:00:42.046Z,20.01
2018-01-07T01:01:42.029Z,19.99
2018-01-07T01:02:42.038Z,20.11
2018-01-07T01:03:42.019Z,20.08
2018-01-07T01:04:41.995Z,20.06
2018-01-07T01:05:41.976Z,20.17
2018-01-07T01:06:41.921Z,20.23
2018-01-07T01:07:41.906Z,20.23
2018-01-07T01:08:41.904Z,20.28
2018-01-07T01:09:41.864Z,20.26
2018-01-07T01:10:41.840Z,20.31
2018-01-07T01:11:41.822Z,20.47
2018-01-07T01:12:41.841Z,20.50
2018-01-07T01:13:41.786Z,20.58
2018-01-07T01:14:41.797Z,20.58
2018-01-07T01:15:41.777Z,20.59
2018-01-07T01:16:41.765Z,20.59
2018-01-07T01:17:41.729Z,20.43
2018-01-07T01:18:41.690Z,20.52
2018-01-07T01:19:41.698Z,20.50
2018-01-07T01:20:41.649Z,20.47
2018-01-07T01:21:41.648Z,20.67
2018-01-07T01:22:41.630Z,20.77
2018-01-07T01:23:41.620Z,20.73
2018-01-07T01:24:41.584Z,20.72
2018-01-07T01:25:41.552Z,20.64
2018-01-07T01:26:41.536Z,20.73
2018-01-07T01:27:41.543Z,20.62
2018-01-07T01:28:41.524Z,20.62
2018-01-07T01:29:41.505Z,20.62
2018-01-07T01:30:41.467Z,20.66
2018-01-07T01:31:41.430Z,20.69
2018-01-07T01:32:41.427Z,20.62
2018-01-07T01:33:41.388Z,20.59
2018-01-07T01:34:41.392Z,20.66
2018-01-07T01:35:41.354Z,20.67
2018-01-07T01:36:41.341Z,20.51
2018-01-07T01:37:41.322Z,20.50
2018-01-07T01:38:41.316Z,20.61
2018-01-07T01:39:41.298Z,20.51
2018-01-07T01:40:41.265Z,20.57
2018-01-07T01:41:41.272Z,20.61
2018-01-07T01:42:41.250Z,20.55
2018-01-07T01:43:41.201Z,20.62
2018-01-07T01:44:41.216Z,20.61
2018-01-07T01:45:41.196Z,20.52
2018-01-07T01:46:41.138Z,20.66
2018-01-07T01:47:41.160Z,20.62
2018-01-07T01:48:41.136Z,20.59
2018-01-07T01:49:41.102Z,20.58
2018-01-07T01:50:41.081Z,20.47
2018-01-07T01:51:41.082Z,20.59
2018-01-07T01:52:41.023Z,20.47
2018-01-07T01:53:41.023Z,20.50
2018-01-07T01:54:40.984Z,20.47
2018-01-07T01:55:41.004Z,20.41
2018-01-07T01:56:40.967Z,20.33
2018-01-07T01:57:40.934Z,20.26
2018-01-07T01:58:40.908Z,20.23
2018-01-07T01:59:40.903Z,20.14
2018-01-07T02:00:40.899Z,20.10
2018-01-07T02:01:40.851Z,20.16
2018-01-07T02:02:40.834Z,20.10
2018-01-07T02:03:40.816Z,20.06
2018-01-07T02:05:14.001Z,20.17
2018-01-07T02:05:40.862Z,20.06
2018-01-07T02:06:40.756Z,20.16
2018-01-07T02:07:40.765Z,20.06
2018-01-07T02:08:40.743Z,20.06
2018-01-07T02:09:40.691Z,20.08
2018-01-07T02:10:40.703Z,19.95
2018-01-07T02:11:40.652Z,20.01
2018-01-07T02:12:40.642Z,19.99
2018-01-07T02:13:40.647Z,20.01
2018-01-07T02:14:40.594Z,20.03
2018-01-07T02:15:40.604Z,19.98
2018-01-07T02:16:40.585Z,20.05
2018-01-07T02:17:40.536Z,20.05
2018-01-07T02:18:40.516Z,19.96
2018-01-07T02:19:40.494Z,20.08
2018-01-07T02:20:40.505Z,20.08
2018-01-07T02:21:40.485Z,20.10
2018-01-07T02:22:40.436Z,20.05
2018-01-07T02:23:40.449Z,20.16
2018-01-07T02:24:40.430Z,20.10
2018-01-07T02:25:40.409Z,20.23
2018-01-07T02:26:40.353Z,20.16
2018-01-07T02:27:40.334Z,20.28
2018-01-07T02:28:40.314Z,20.31
2018-01-07T02:29:40.328Z,20.24
2018-01-07T02:30:40.277Z,20.31
2018-01-07T02:31:40.288Z,20.24
2018-01-07T02:32:40.267Z,20.24
2018-01-07T02:33:40.216Z,20.31
2018-01-07T02:34:40.230Z,20.29
2018-01-07T02:35:40.178Z,20.31
2018-01-07T02:36:40.159Z,20.29
2018-01-07T02:37:40.144Z,20.29
2018-01-07T02:38:40.153Z,20.35
2018-01-07T02:39:40.108Z,20.26
2018-01-07T02:40:40.086Z,20.31
2018-01-07T02:41:40.057Z,20.26
2018-01-07T02:42:40.072Z,20.29
2018-01-07T02:43:40.019Z,20.21
2018-01-07T02:44:40.000Z,20.29
2018-01-07T02:45:40.018Z,20.29
2018-01-07T02:46:39.996Z,20.18
2018-01-07T02:47:39.942Z,20.16
2018-01-07T02:48:39.952Z,20.17
2018-01-07T02:49:39.947Z,20.23
2018-01-07T02:50:39.882Z,20.23
2018-01-07T02:51:39.878Z,20.21
2018-01-07T02:52:39.864Z,20.18
2018-01-07T02:53:39.910Z,20.17
2018-01-07T02:54:39.803Z,20.20
2018-01-07T02:55:39.781Z,20.08
2018-01-07T02:56:39.766Z,20.18
2018-01-07T02:57:39.743Z,20.16
2018-01-07T02:58:39.746Z,20.16
2018-01-07T02:59:39.703Z,20.17
2018-01-07T03:00:39.687Z,20.21
2018-01-07T03:01:39.660Z,20.21
2018-01-07T03:02:39.648Z,20.17
2018-01-07T03:03:39.643Z,20.21
2018-01-07T03:04:39.602Z,20.10
2018-01-07T03:05:39.588Z,20.17
2018-01-07T03:06:39.592Z,20.17
2018-01-07T03:07:39.565Z,20.16
2018-01-07T03:08:39.535Z,20.14
2018-01-07T03:09:39.528Z,20.13
2018-01-07T03:10:39.502Z,20.10
2018-01-07T03:11:39.484Z,20.05
2018-01-07T03:12:39.442Z,20.20
2018-01-07T03:13:39.448Z,20.08
2018-01-07T03:14:39.423Z,20.08
2018-01-07T03:15:39.392Z,20.10
2018-01-07T03:16:39.388Z,20.03
2018-01-07T03:17:39.344Z,20.08
2018-01-07T03:18:39.329Z,20.16
2018-01-07T03:19:39.325Z,20.14
2018-01-07T03:20:39.313Z,20.06
2018-01-07T03:21:39.282Z,20.06
2018-01-07T03:22:39.267Z,20.10
2018-01-07T03:23:39.231Z,20.11
2018-01-07T03:24:39.213Z,20.06
2018-01-07T03:25:39.197Z,20.10
2018-01-07T03:26:39.176Z,20.13
2018-01-07T03:27:39.186Z,20.06
2018-01-07T03:28:39.167Z,20.05
2018-01-07T03:29:39.114Z,20.16
2018-01-07T03:30:39.098Z,20.08
2018-01-07T03:31:39.107Z,20.11
2018-01-07T03:32:39.071Z,20.18
2018-01-07T03:33:39.038Z,20.16
2018-01-07T03:34:39.047Z,20.20
2018-01-07T03:35:38.998Z,20.21
2018-01-07T03:36:38.983Z,20.21
2018-01-07T03:37:38.996Z,20.17
2018-01-07T03:38:38.969Z,20.18
2018-01-07T03:39:38.920Z,20.18
2018-01-07T03:40:38.901Z,20.24
2018-01-07T03:41:38.878Z,20.28
2018-01-07T03:42:38.878Z,20.23
2018-01-07T03:43:38.877Z,20.26
2018-01-07T03:44:38.826Z,20.28
2018-01-07T03:45:38.838Z,20.29
2018-01-07T03:46:38.815Z,20.23
2018-01-07T03:47:38.794Z,20.28
2018-01-07T03:48:38.739Z,20.31
2018-01-07T03:49:38.721Z,20.24
2018-01-07T03:50:38.733Z,20.23
2018-01-07T03:51:38.713Z,20.20
2018-01-07T03:52:38.693Z,20.28
2018-01-07T03:53:38.645Z,20.24
2018-01-07T03:54:38.634Z,20.24
2018-01-07T03:55:38.637Z,20.18
2018-01-07T03:56:38.580Z,20.17
2018-01-07T03:57:38.571Z,20.14
2018-01-07T03:58:38.544Z,20.16
2018-01-07T03:59:38.528Z,20.21
2018-01-07T04:00:38.510Z,20.06
2018-01-07T04:01:38.480Z,20.05
2018-01-07T04:02:38.468Z,19.95
2018-01-07T04:03:38.464Z,20.03
2018-01-07T04:04:38.461Z,19.96
2018-01-07T04:05:38.409Z,19.98
2018-01-07T04:06:38.396Z,20.01
2018-01-07T04:07:38.403Z,19.84
2018-01-07T04:08:38.372Z,19.99
2018-01-07T04:09:38.329Z,19.81
2018-01-07T04:10:38.323Z,19.87
2018-01-07T04:11:38.324Z,19.86
2018-01-07T04:12:38.304Z,19.84
2018-01-07T04:13:38.250Z,19.92
2018-01-07T04:14:38.249Z,19.96
2018-01-07T04:15:38.211Z,19.84
2018-01-07T04:16:38.191Z,19.86
2018-01-07T04:17:38.190Z,19.87
2018-01-07T04:18:38.185Z,19.91
2018-01-07T04:19:38.143Z,19.84
2018-01-07T04:20:38.192Z,19.80
2018-01-07T04:21:38.088Z,19.81
2018-01-07T04:22:38.092Z,19.84
2018-01-07T04:23:38.081Z,19.84
2018-01-07T04:24:38.049Z,19.84
2018-01-07T04:25:38.045Z,19.84
2018-01-07T04:26:37.994Z,19.77
2018-01-07T04:27:38.004Z,19.78
2018-01-07T04:28:37.981Z,19.77
2018-01-07T04:29:37.961Z,19.77
2018-01-07T04:30:37.911Z,19.68
2018-01-07T04:31:37.891Z,19.73
2018-01-07T04:32:37.872Z,19.71
2018-01-07T04:33:37.857Z,19.63
2018-01-07T04:34:37.833Z,19.73
2018-01-07T04:35:37.844Z,19.62
2018-01-07T04:36:37.793Z,19.62
2018-01-07T04:37:37.769Z,19.59
2018-01-07T04:38:37.783Z,19.59
2018-01-07T04:39:37.730Z,19.56
2018-01-07T04:40:37.715Z,19.58
2018-01-07T04:41:37.707Z,19.47
2018-01-07T04:42:37.703Z,19.39
2018-01-07T04:43:37.646Z,19.36
2018-01-07T04:44:37.667Z,19.41
2018-01-07T04:45:37.626Z,19.37
2018-01-07T04:46:37.588Z,19.23
2018-01-07T04:47:37.571Z,19.19
2018-01-07T04:48:37.548Z,19.11
2018-01-07T04:49:37.554Z,19.10
2018-01-07T04:50:37.505Z,19.04
2018-01-07T04:51:37.492Z,19.08
2018-01-07T04:52:37.467Z,19.08
2018-01-07T04:53:37.443Z,19.00
2018-01-07T04:54:37.425Z,19.10
2018-01-07T04:55:37.405Z,18.95
2018-01-07T04:56:37.402Z,19.04
2018-01-07T04:57:37.396Z,19.04
2018-01-07T04:58:37.376Z,18.94
2018-01-07T04:59:37.326Z,18.92
2018-01-07T05:00:37.308Z,19.02
2018-01-07T05:01:37.298Z,19.04
2018-01-07T05:02:37.255Z,19.10
2018-01-07T05:03:37.238Z,19.00
2018-01-07T05:04:37.216Z,18.94
2018-01-07T05:05:37.229Z,19.07
2018-01-07T05:06:37.177Z,18.90
2018-01-07T05:07:37.188Z,19.04
2018-01-07T05:08:37.141Z,19.06
2018-01-07T05:09:37.152Z,19.02
2018-01-07T05:10:37.125Z,19.07
2018-01-07T05:11:37.106Z,18.99
2018-01-07T05:12:37.620Z,19.04
2018-01-07T05:13:37.068Z,19.04
2018-01-07T05:14:37.016Z,18.98
2018-01-07T05:15:36.990Z,19.00
2018-01-07T05:16:37.373Z,19.08
2018-01-07T05:17:36.964Z,18.99
2018-01-07T05:18:36.968Z,18.99
2018-01-07T05:19:36.909Z,19.04
2018-01-07T05:20:36.896Z,19.06
2018-01-07T05:21:36.870Z,19.11
2018-01-07T05:22:36.882Z,19.07
2018-01-07T05:23:36.829Z,19.02
2018-01-07T05:24:36.838Z,19.02
2018-01-07T05:25:36.818Z,19.08
2018-01-07T05:26:36.767Z,19.06
2018-01-07T05:27:36.777Z,19.10
2018-01-07T05:28:36.732Z,19.19
2018-01-07T05:29:36.707Z,19.14
2018-01-07T05:30:36.682Z,19.13
2018-01-07T05:31:36.666Z,19.25
2018-01-07T05:32:36.678Z,19.21
2018-01-07T05:33:36.626Z,19.26
2018-01-07T05:34:36.601Z,19.21
2018-01-07T05:35:36.616Z,19.21
2018-01-07T05:36:36.578Z,19.25
2018-01-07T05:37:36.540Z,19.32
2018-01-07T05:38:36.533Z,19.22
2018-01-07T05:39:36.514Z,19.14
2018-01-07T05:40:36.482Z,19.26
2018-01-07T05:41:36.483Z,19.21
2018-01-07T05:42:36.471Z,19.21
2018-01-07T05:43:36.414Z,19.21
2018-01-07T05:44:36.400Z,19.26
2018-01-07T05:45:36.391Z,19.26
2018-01-07T05:46:36.358Z,19.29
2018-01-07T05:47:36.338Z,19.36
2018-01-07T05:48:36.319Z,19.33
2018-01-07T05:49:36.295Z,19.33
2018-01-07T05:50:36.309Z,19.36
2018-01-07T05:51:36.257Z,19.21
2018-01-07T05:52:36.237Z,19.28
2018-01-07T05:53:36.249Z,19.32
2018-01-07T05:54:36.188Z,19.31
2018-01-07T05:55:36.194Z,19.37
2018-01-07T05:56:36.152Z,19.33
2018-01-07T05:57:36.135Z,19.37
2018-01-07T05:58:36.109Z,19.36
2018-01-07T05:59:36.097Z,19.40
2018-01-07T06:00:36.092Z,19.33
2018-01-07T06:01:36.088Z,19.39
2018-01-07T06:02:36.042Z,19.40
2018-01-07T06:03:36.047Z,19.32
2018-01-07T06:04:36.012Z,19.26
2018-01-07T06:05:35.975Z,19.28
2018-01-07T06:06:35.952Z,19.21
2018-01-07T06:07:35.972Z,19.23
2018-01-07T06:08:35.913Z,19.39
2018-01-07T06:09:35.892Z,19.36
2018-01-07T06:10:35.906Z,19.36
2018-01-07T06:11:35.855Z,19.40
2018-01-07T06:12:35.833Z,19.40
2018-01-07T06:13:35.812Z,19.40
2018-01-07T06:14:35.788Z,19.29
2018-01-07T06:15:35.807Z,19.46
2018-01-07T06:16:35.752Z,19.46
2018-01-07T06:17:35.769Z,19.48
2018-01-07T06:18:35.711Z,19.54
2018-01-07T06:19:35.692Z,19.61
2018-01-07T06:20:35.707Z,19.58
2018-01-07T06:21:35.673Z,19.41
2018-01-07T06:22:35.651Z,19.44
2018-01-07T06:23:35.632Z,19.33
2018-01-07T06:24:35.611Z,19.33
2018-01-07T06:25:35.608Z,19.36
2018-01-07T06:26:35.589Z,19.41
2018-01-07T06:27:35.568Z,19.31
2018-01-07T06:28:35.535Z,19.32
2018-01-07T06:29:35.529Z,19.32
2018-01-07T06:30:35.479Z,19.29
2018-01-07T06:31:35.455Z,19.28
2018-01-07T06:32:35.455Z,19.25
2018-01-07T06:33:35.429Z,19.22
2018-01-07T06:34:35.419Z,19.23
2018-01-07T06:35:35.372Z,19.29
2018-01-07T06:36:35.387Z,19.22
2018-01-07T06:37:35.368Z,19.25
2018-01-07T06:38:35.348Z,19.19
2018-01-07T06:39:35.310Z,19.19
2018-01-07T06:40:35.275Z,19.16
2018-01-07T06:41:35.264Z,19.23
2018-01-07T06:42:35.239Z,19.16
2018-01-07T06:43:35.213Z,19.21
2018-01-07T06:44:35.193Z,19.14
2018-01-07T06:45:35.179Z,19.16
2018-01-07T06:46:35.168Z,19.25
2018-01-07T06:47:35.132Z,19.29
2018-01-07T06:48:35.136Z,19.22
2018-01-07T06:49:35.093Z,19.10
2018-01-07T06:50:35.104Z,19.06
2018-01-07T06:51:35.051Z,19.10
2018-01-07T06:52:35.030Z,19.08
2018-01-07T06:53:35.023Z,19.07
2018-01-07T06:54:34.987Z,19.07
2018-01-07T06:55:34.968Z,19.10
2018-01-07T06:56:34.947Z,19.08
2018-01-07T06:57:34.958Z,19.07
2018-01-07T06:58:34.913Z,19.08
2018-01-07T06:59:34.921Z,19.13
2018-01-07T07:00:34.930Z,19.00
2018-01-07T07:01:34.848Z,19.08
2018-01-07T07:02:34.823Z,19.04
2018-01-07T07:03:34.806Z,19.00
2018-01-07T07:04:34.822Z,18.95
2018-01-07T07:05:34.800Z,18.90
2018-01-07T07:06:34.741Z,18.90
2018-01-07T07:07:34.728Z,18.84
2018-01-07T07:08:34.705Z,18.82
2018-01-07T07:09:34.684Z,18.81
2018-01-07T07:10:34.660Z,18.81
2018-01-07T07:11:34.675Z,18.78
2018-01-07T07:12:34.659Z,18.85
2018-01-07T07:13:34.602Z,18.81
2018-01-07T07:14:34.617Z,18.87
2018-01-07T07:15:34.590Z,18.82
2018-01-07T07:16:34.574Z,18.85
2018-01-07T07:17:34.526Z,18.82
2018-01-07T07:18:34.510Z,18.84
2018-01-07T07:19:34.510Z,18.78
2018-01-07T07:20:34.451Z,18.70
2018-01-07T07:21:34.469Z,18.81
2018-01-07T07:22:34.453Z,18.82
2018-01-07T07:23:34.433Z,18.80
2018-01-07T07:24:34.378Z,18.72
2018-01-07T07:25:34.352Z,18.72
2018-01-07T07:26:34.366Z,18.73
2018-01-07T07:27:34.343Z,18.62
2018-01-07T07:28:34.304Z,18.69
2018-01-07T07:29:34.302Z,18.70
2018-01-07T07:30:34.283Z,18.66
2018-01-07T07:31:34.229Z,18.66
2018-01-07T07:32:34.240Z,18.66
2018-01-07T07:33:34.218Z,18.66
2018-01-07T07:34:34.197Z,18.67
2018-01-07T07:35:34.144Z,18.70
2018-01-07T07:36:34.159Z,18.69
2018-01-07T07:37:34.103Z,18.67
2018-01-07T07:38:34.115Z,18.69
2018-01-07T07:39:34.076Z,18.75
2018-01-07T07:40:34.041Z,18.76
2018-01-07T07:41:34.041Z,18.66
2018-01-07T07:42:34.034Z,18.66
2018-01-07T07:43:33.979Z,18.75
2018-01-07T07:44:33.995Z,18.72
2018-01-07T07:45:33.958Z,18.69
2018-01-07T07:46:33.916Z,18.73
2018-01-07T07:47:33.902Z,18.70
2018-01-07T07:48:33.914Z,18.63
2018-01-07T07:49:33.856Z,18.75
2018-01-07T07:50:33.831Z,18.72
2018-01-07T07:51:33.856Z,18.75
2018-01-07T07:52:33.789Z,18.66
2018-01-07T07:53:33.807Z,18.65
2018-01-07T07:54:33.786Z,18.73
2018-01-07T07:55:33.732Z,18.70
2018-01-07T07:56:34.279Z,18.70
2018-01-07T07:57:33.691Z,18.72
2018-01-07T07:58:33.667Z,18.70
2018-01-07T07:59:33.683Z,18.75
2018-01-07T08:00:33.633Z,18.76
2018-01-07T08:01:33.638Z,18.72
2018-01-07T08:02:33.623Z,18.75
2018-01-07T08:03:33.563Z,18.63
2018-01-07T08:04:33.547Z,18.73
2018-01-07T08:05:33.559Z,18.65
2018-01-07T08:06:33.536Z,18.73
2018-01-07T08:07:33.516Z,18.84
2018-01-07T08:08:33.493Z,18.80
2018-01-07T08:09:33.440Z,18.78
2018-01-07T08:10:33.422Z,18.80
2018-01-07T08:11:33.410Z,18.69
2018-01-07T08:12:33.398Z,18.85
2018-01-07T08:13:33.378Z,18.80
2018-01-07T08:14:33.337Z,18.82
2018-01-07T08:15:33.317Z,18.85
2018-01-07T08:16:33.328Z,18.88
2018-01-07T08:17:33.276Z,18.85
2018-01-07T08:18:33.291Z,18.88
2018-01-07T08:19:33.237Z,18.88
2018-01-07T08:20:33.242Z,18.91
2018-01-07T08:21:33.214Z,18.87
2018-01-07T08:22:33.176Z,18.90
2018-01-07T08:23:33.187Z,19.00
2018-01-07T08:24:33.138Z,18.95
2018-01-07T08:25:33.116Z,18.95
2018-01-07T08:26:33.095Z,19.04
2018-01-07T08:27:33.106Z,18.99
2018-01-07T08:28:33.094Z,19.02
2018-01-07T08:29:33.053Z,18.99
2018-01-07T08:30:33.014Z,19.04
2018-01-07T08:31:33.025Z,19.06
2018-01-07T08:32:33.012Z,19.07
2018-01-07T08:33:32.968Z,18.99
2018-01-07T08:34:32.928Z,19.19
2018-01-07T08:35:32.908Z,19.16
2018-01-07T08:36:32.895Z,19.16
2018-01-07T08:37:32.877Z,19.14
2018-01-07T08:38:32.856Z,19.18
2018-01-07T08:39:32.858Z,19.18
2018-01-07T08:40:32.815Z,19.23
2018-01-07T08:41:32.813Z,19.16
2018-01-07T08:42:32.808Z,19.14
2018-01-07T08:43:32.787Z,19.14
2018-01-07T08:44:32.732Z,19.26
2018-01-07T08:45:32.746Z,19.21
2018-01-07T08:46:32.696Z,19.19
2018-01-07T08:47:32.680Z,19.31
2018-01-07T08:48:32.651Z,19.37
2018-01-07T08:49:32.636Z,19.36
2018-01-07T08:50:32.614Z,19.36
2018-01-07T08:51:32.596Z,19.43
2018-01-07T08:52:32.572Z,19.48
2018-01-07T08:53:32.557Z,19.44
2018-01-07T08:54:32.542Z,19.46
2018-01-07T08:55:32.513Z,19.54
2018-01-07T08:56:32.494Z,19.46
2018-01-07T08:57:32.515Z,19.50
2018-01-07T08:58:32.457Z,19.46
2018-01-07T08:59:32.442Z,19.56
2018-01-07T09:00:32.452Z,19.47
2018-01-07T09:01:32.414Z,19.47
2018-01-07T09:02:32.411Z,19.54
2018-01-07T09:03:32.393Z,19.58
2018-01-07T09:04:32.335Z,19.65
2018-01-07T09:05:32.320Z,19.63
2018-01-07T09:06:32.307Z,19.61
2018-01-07T09:07:32.316Z,19.62
2018-01-07T09:08:32.275Z,19.58
2018-01-07T09:09:32.244Z,19.66
2018-01-07T09:10:32.217Z,19.68
2018-01-07T09:11:32.240Z,19.68
2018-01-07T09:12:32.178Z,19.71
2018-01-07T09:13:32.192Z,19.62
2018-01-07T09:14:32.178Z,19.69
2018-01-07T09:15:32.138Z,19.58
2018-01-07T09:16:32.106Z,19.43
2018-01-07T09:17:32.120Z,19.40
2018-01-07T09:18:32.095Z,19.37
2018-01-07T09:19:32.091Z,19.47
2018-01-07T09:20:32.022Z,19.44
2018-01-07T09:21:32.035Z,19.31
2018-01-07T09:22:32.019Z,19.41
2018-01-07T09:23:32.002Z,19.46
2018-01-07T09:24:31.941Z,19.47
2018-01-07T09:25:31.941Z,19.46
2018-01-07T09:26:31.920Z,19.43
2018-01-07T09:27:31.902Z,19.46
2018-01-07T09:28:31.866Z,19.48
2018-01-07T09:29:31.883Z,19.54
2018-01-07T09:30:31.820Z,19.56
2018-01-07T09:31:31.807Z,19.63
2018-01-07T09:32:31.824Z,19.66
2018-01-07T09:33:31.766Z,19.65
2018-01-07T09:34:31.777Z,19.73
2018-01-07T09:35:31.761Z,19.62
2018-01-07T09:36:31.704Z,19.66
2018-01-07T09:37:31.688Z,19.68
2018-01-07T09:38:31.678Z,19.65
2018-01-07T09:39:31.648Z,19.62
2018-01-07T09:40:31.644Z,19.62
2018-01-07T09:41:31.641Z,19.61
2018-01-07T09:42:31.587Z,19.68
2018-01-07T09:43:31.588Z,19.68
2018-01-07T09:44:31.546Z,19.68
2018-01-07T09:45:31.532Z,19.71
2018-01-07T09:46:31.540Z,19.76
2018-01-07T09:47:31.522Z,19.84
2018-01-07T09:48:31.471Z,19.78
2018-01-07T09:49:31.485Z,19.73
2018-01-07T09:50:31.428Z,19.68
2018-01-07T09:51:31.444Z,19.69
2018-01-07T09:52:31.392Z,19.78
2018-01-07T09:53:31.373Z,19.73
2018-01-07T09:54:31.353Z,19.77
2018-01-07T09:55:31.363Z,19.74
2018-01-07T09:56:31.318Z,19.87
2018-01-07T09:57:31.308Z,19.83
2018-01-07T09:58:31.306Z,19.84
2018-01-07T09:59:31.273Z,19.87
2018-01-07T10:00:31.267Z,19.91
2018-01-07T10:01:31.232Z,19.74
2018-01-07T10:02:31.211Z,19.74
2018-01-07T10:03:31.173Z,19.76
2018-01-07T10:04:31.169Z,19.74
2018-01-07T10:05:31.156Z,19.78
2018-01-07T10:06:31.132Z,19.77
2018-01-07T10:07:31.123Z,19.73
2018-01-07T10:08:31.096Z,19.80
2018-01-07T10:09:31.060Z,19.83
2018-01-07T10:10:31.072Z,19.86
2018-01-07T10:11:31.054Z,19.98
2018-01-07T10:12:31.031Z,20.05
2018-01-07T10:13:30.975Z,20.06
2018-01-07T10:14:30.996Z,20.10
2018-01-07T10:15:30.980Z,20.08
2018-01-07T10:16:30.956Z,19.98
2018-01-07T10:17:30.917Z,19.95
2018-01-07T10:18:30.915Z,19.94
2018-01-07T10:19:30.870Z,19.86
2018-01-07T10:20:30.865Z,19.84
2018-01-07T10:21:30.823Z,19.91
2018-01-07T10:22:30.840Z,19.95
2018-01-07T10:23:30.789Z,19.96
2018-01-07T10:24:30.770Z,20.14
2018-01-07T10:25:30.784Z,20.06
2018-01-07T10:26:30.724Z,20.13
2018-01-07T10:27:30.746Z,20.17
2018-01-07T10:28:30.688Z,20.16
2018-01-07T10:29:30.693Z,20.11
2018-01-07T10:30:30.682Z,20.08
2018-01-07T10:31:30.632Z,19.94
2018-01-07T10:32:30.612Z,19.99
2018-01-07T10:33:30.626Z,19.88
2018-01-07T10:34:30.578Z,19.84
2018-01-07T10:35:30.605Z,19.76
2018-01-07T10:36:30.540Z,19.74
2018-01-07T10:37:30.548Z,19.76
2018-01-07T10:38:30.533Z,19.76
2018-01-07T10:39:30.512Z,19.77
2018-01-07T10:40:30.491Z,19.73
2018-01-07T10:41:30.439Z,19.62
2018-01-07T10:42:30.422Z,19.63
2018-01-07T10:43:30.432Z,19.56
2018-01-07T10:44:30.383Z,19.48
2018-01-07T10:45:30.382Z,19.48
2018-01-07T10:46:30.381Z,19.36
2018-01-07T10:47:30.359Z,19.22
2018-01-07T10:48:30.303Z,19.28
2018-01-07T10:49:30.290Z,19.16
2018-01-07T10:50:30.267Z,19.22
2018-01-07T10:51:30.278Z,19.04
2018-01-07T10:52:30.226Z,18.92
2018-01-07T10:53:30.204Z,18.84
2018-01-07T10:54:30.183Z,18.73
2018-01-07T10:55:30.201Z,18.66
2018-01-07T10:56:30.146Z,18.55
2018-01-07T10:57:30.137Z,18.42
2018-01-07T10:58:30.140Z,18.32
2018-01-07T10:59:30.119Z,18.20
2018-01-07T11:00:30.102Z,18.18
2018-01-07T11:01:30.076Z,18.05
2018-01-07T11:02:30.023Z,18.10
2018-01-07T11:03:30.008Z,17.95
2018-01-07T11:04:29.983Z,17.90
2018-01-07T11:05:29.964Z,17.81
2018-01-07T11:06:29.979Z,17.74
2018-01-07T11:07:29.916Z,17.56
2018-01-07T11:08:29.936Z,17.56
2018-01-07T11:09:29.899Z,17.48
2018-01-07T11:10:29.857Z,17.55
2018-01-07T11:11:29.839Z,17.52
2018-01-07T11:12:29.854Z,17.62
2018-01-07T11:13:29.835Z,17.74
2018-01-07T11:14:29.779Z,17.64
2018-01-07T11:15:29.756Z,17.66
2018-01-07T11:16:29.735Z,17.59
2018-01-07T11:17:29.718Z,17.56
2018-01-07T11:18:29.715Z,17.55
2018-01-07T11:19:29.676Z,17.56
2018-01-07T11:20:29.652Z,17.59
2018-01-07T11:21:29.781Z,17.59
2018-01-07T11:22:29.643Z,17.58
2018-01-07T11:23:29.627Z,17.68
2018-01-07T11:24:29.570Z,17.59
2018-01-07T11:25:29.569Z,17.51
2018-01-07T11:26:29.541Z,17.38
2018-01-07T11:27:29.526Z,17.43
2018-01-07T11:28:29.484Z,17.48
2018-01-07T11:29:29.464Z,17.44
2018-01-07T11:30:29.436Z,17.44
2018-01-07T11:31:29.418Z,17.54
2018-01-07T11:32:29.437Z,17.56
2018-01-07T11:33:29.387Z,17.63
2018-01-07T11:34:29.364Z,17.71
2018-01-07T11:35:29.376Z,17.62
2018-01-07T11:36:29.353Z,17.59
2018-01-07T11:37:29.330Z,17.63
2018-01-07T11:38:29.277Z,17.77
2018-01-07T11:39:29.268Z,17.82
2018-01-07T11:40:29.270Z,17.92
2018-01-07T11:41:29.215Z,17.81
2018-01-07T11:42:29.209Z,17.81
2018-01-07T11:43:29.213Z,17.87
2018-01-07T11:44:29.167Z,17.77
2018-01-07T11:45:29.170Z,17.74
2018-01-07T11:46:29.113Z,17.72
2018-01-07T11:47:29.090Z,17.70
2018-01-07T11:48:29.106Z,17.62
2018-01-07T11:49:29.083Z,17.68
2018-01-07T11:50:29.031Z,17.68
2018-01-07T11:51:29.041Z,17.70
2018-01-07T11:52:29.023Z,17.66
2018-01-07T11:53:28.968Z,17.81
2018-01-07T11:54:28.983Z,17.89
2018-01-07T11:55:28.943Z,17.96
2018-01-07T11:56:28.941Z,17.97
2018-01-07T11:57:28.919Z,17.97
2018-01-07T11:58:28.875Z,17.95
2018-01-07T11:59:28.847Z,17.95
2018-01-07T12:00:28.842Z,18.05
2018-01-07T12:01:28.807Z,18.10
2018-01-07T12:02:28.823Z,18.23
2018-01-07T12:03:28.769Z,18.32
2018-01-07T12:04:28.775Z,18.32
2018-01-07T12:05:28.745Z,18.35
2018-01-07T12:06:28.701Z,18.35
2018-01-07T12:07:28.682Z,18.36
2018-01-07T12:08:28.694Z,18.33
2018-01-07T12:09:28.678Z,18.41
2018-01-07T12:10:28.626Z,18.32
2018-01-07T12:11:28.604Z,18.33
2018-01-07T12:12:28.597Z,18.39
2018-01-07T12:13:28.563Z,18.44
2018-01-07T12:14:28.574Z,18.58
2018-01-07T12:15:29.088Z,18.48
2018-01-07T12:16:28.538Z,18.36
2018-01-07T12:17:28.484Z,18.27
2018-01-07T12:18:28.462Z,18.39
2018-01-07T12:19:28.459Z,18.37
2018-01-07T12:20:28.437Z,18.32
2018-01-07T12:21:28.425Z,18.30
2018-01-07T12:22:28.382Z,18.29
2018-01-07T12:23:28.363Z,18.29
2018-01-07T12:24:28.374Z,18.50
2018-01-07T12:25:28.357Z,18.72
2018-01-07T12:26:28.335Z,18.85
2018-01-07T12:27:28.303Z,19.00
2018-01-07T12:28:28.264Z,19.02
2018-01-07T12:29:28.244Z,19.22
2018-01-07T12:30:28.224Z,19.33
2018-01-07T12:31:28.202Z,19.36
2018-01-07T12:32:28.187Z,19.47
2018-01-07T12:33:28.199Z,19.44
2018-01-07T12:34:28.143Z,19.63
2018-01-07T12:35:28.161Z,19.73
2018-01-07T12:36:28.132Z,19.69
2018-01-07T12:37:28.124Z,19.69
2018-01-07T12:38:28.104Z,19.83
2018-01-07T12:39:28.132Z,19.91
2018-01-07T12:40:28.033Z,19.99
2018-01-07T12:41:28.014Z,20.16
2018-01-07T12:42:28.013Z,20.10
2018-01-07T12:43:27.984Z,20.10
2018-01-07T12:44:27.960Z,20.17
2018-01-07T12:45:27.958Z,20.03
2018-01-07T12:46:27.920Z,20.03
2018-01-07T12:47:27.899Z,19.86
2018-01-07T12:48:27.903Z,19.69
2018-01-07T12:49:27.900Z,19.48
2018-01-07T12:50:27.846Z,19.40
2018-01-07T12:51:27.827Z,19.21
2018-01-07T12:52:27.842Z,19.22